createdAt,value
2022-07-28T00:02:59.115Z,0.70
2022-07-28T00:06:02.009Z,0.50
2022-07-28T00:09:05.184Z,0.80
2022-07-28T00:12:09.588Z,0.80
2022-07-28T00:15:12.562Z,0.80
2022-07-28T00:18:18.830Z,0.90
2022-07-28T00:21:21.782Z,0.90
2022-07-28T00:24:24.751Z,0.60
2022-07-28T00:27:27.618Z,0.70
2022-07-28T00:30:31.105Z,0.80
2022-07-28T00:33:37.670Z,0.80
2022-07-28T00:36:40.731Z,0.60
2022-07-28T00:39:45.138Z,0.80
2022-07-28T00:42:52.852Z,0.80
2022-07-28T00:45:56.001Z,0.50
2022-07-28T00:48:59.351Z,0.70
2022-07-28T00:52:02.964Z,0.80
2022-07-28T00:55:06.257Z,0.80
2022-07-28T00:58:09.110Z,0.60
2022-07-28T01:01:16.037Z,0.80
2022-07-28T01:04:19.686Z,0.80
2022-07-28T01:07:39.813Z,0.70
2022-07-28T01:11:14.932Z,0.60
2022-07-28T01:14:28.040Z,0.60
2022-07-28T01:17:49.531Z,0.70
2022-07-28T01:21:01.932Z,0.70
2022-07-28T01:24:19.832Z,0.50
2022-07-28T01:27:53.402Z,0.50
2022-07-28T01:31:04.517Z,0.80
2022-07-28T01:34:11.891Z,0.70
2022-07-28T01:37:20.841Z,0.40
2022-07-28T01:40:28.190Z,0.60
2022-07-28T01:43:34.860Z,0.60
2022-07-28T01:46:38.842Z,0.50
2022-07-28T01:49:44.251Z,0.50
2022-07-28T01:52:49.959Z,0.60
2022-07-28T01:55:53.860Z,0.30
2022-07-28T01:59:00.244Z,0.50
2022-07-28T02:02:04.634Z,1.00
2022-07-28T02:05:10.113Z,0.60
2022-07-28T02:08:16.138Z,0.40
2022-07-28T02:11:38.360Z,0.80
2022-07-28T02:14:42.652Z,1.10
2022-07-28T02:17:47.200Z,0.60
2022-07-28T02:20:50.755Z,0.70
2022-07-28T02:23:55.285Z,0.60
2022-07-28T02:27:06.424Z,1.00
2022-07-28T02:30:41.576Z,0.60
2022-07-28T02:33:58.634Z,0.90
2022-07-28T02:37:05.403Z,0.70
2022-07-28T02:40:13.923Z,0.70
2022-07-28T02:43:25.647Z,0.80
2022-07-28T02:46:53.026Z,0.70
2022-07-28T02:49:58.738Z,0.80
2022-07-28T02:53:14.985Z,1.00
2022-07-28T02:56:19.696Z,0.80
2022-07-28T02:59:24.206Z,0.90
2022-07-28T03:02:31.043Z,0.60
2022-07-28T03:05:34.542Z,1.00
2022-07-28T03:08:37.844Z,0.80
2022-07-28T03:11:53.286Z,1.10
2022-07-28T03:14:56.358Z,0.70
2022-07-28T03:18:00.971Z,1.00
2022-07-28T03:21:04.043Z,1.00
2022-07-28T03:24:09.575Z,0.90
2022-07-28T03:27:15.311Z,1.30
2022-07-28T03:30:23.265Z,1.40
2022-07-28T03:33:26.780Z,1.10
2022-07-28T03:36:36.096Z,1.10
2022-07-28T03:39:45.516Z,1.00
2022-07-28T03:42:54.831Z,1.10
2022-07-28T03:45:58.223Z,1.10
2022-07-28T03:49:01.137Z,1.50
2022-07-28T03:52:05.006Z,1.30
2022-07-28T03:55:09.281Z,1.30
2022-07-28T03:58:12.154Z,1.20
2022-07-28T04:01:15.165Z,1.10
2022-07-28T04:04:18.384Z,1.20
2022-07-28T04:07:21.739Z,1.40
2022-07-28T04:10:24.755Z,1.20
2022-07-28T04:13:27.833Z,1.20
2022-07-28T04:16:30.905Z,1.10
2022-07-28T04:19:34.087Z,1.50
2022-07-28T04:22:37.772Z,1.10
2022-07-28T04:25:43.100Z,1.10
2022-07-28T04:28:46.378Z,1.30
2022-07-28T04:31:49.549Z,1.50
2022-07-28T04:34:52.429Z,2.40
2022-07-28T04:37:58.699Z,1.50
2022-07-28T04:41:01.850Z,1.10
2022-07-28T04:44:05.027Z,1.10
2022-07-28T04:47:14.856Z,1.50
2022-07-28T04:50:20.942Z,1.20
2022-07-28T04:53:25.100Z,1.70
2022-07-28T04:56:28.070Z,1.50
2022-07-28T04:59:32.369Z,1.40
2022-07-28T05:02:35.343Z,1.50
2022-07-28T05:05:38.214Z,1.60
2022-07-28T05:08:41.179Z,1.80
2022-07-28T05:11:44.163Z,1.40
2022-07-28T05:14:48.391Z,1.40
2022-07-28T05:17:58.699Z,1.00
2022-07-28T05:21:05.563Z,1.30
2022-07-28T05:24:08.559Z,0.90
2022-07-28T05:27:16.928Z,0.90
2022-07-28T05:30:28.807Z,0.90
2022-07-28T05:33:43.031Z,0.80
2022-07-28T05:36:48.770Z,1.10
2022-07-28T05:39:59.481Z,0.90
2022-07-28T05:43:03.102Z,1.10
2022-07-28T05:46:09.659Z,1.40
2022-07-28T05:49:37.632Z,0.80
2022-07-28T05:52:51.522Z,0.90
2022-07-28T05:56:02.959Z,0.80
2022-07-28T05:59:10.452Z,0.90
2022-07-28T06:02:14.279Z,0.80
2022-07-28T06:05:32.533Z,0.80
2022-07-28T06:08:37.285Z,0.70
2022-07-28T06:11:40.154Z,0.60
2022-07-28T06:14:43.129Z,0.70
2022-07-28T06:17:47.739Z,0.70
2022-07-28T06:20:50.713Z,1.40
2022-07-28T06:23:53.686Z,1.10
2022-07-28T06:26:56.552Z,1.00
2022-07-28T06:29:59.627Z,1.10
2022-07-28T06:33:02.699Z,1.00
2022-07-28T06:36:05.878Z,0.80
2022-07-28T06:39:09.204Z,1.00
2022-07-28T06:42:12.639Z,0.90
2022-07-28T06:45:19.643Z,0.80
2022-07-28T06:48:28.764Z,0.80
2022-07-28T06:51:32.549Z,0.80
2022-07-28T06:54:35.687Z,0.80
2022-07-28T06:57:40.294Z,0.60
2022-07-28T07:00:43.398Z,1.00
2022-07-28T07:03:46.595Z,1.00
2022-07-28T07:06:49.620Z,1.00
2022-07-28T07:09:52.593Z,0.70
2022-07-28T07:12:55.873Z,0.80
2022-07-28T07:15:58.790Z,0.80
2022-07-28T07:19:01.814Z,0.60
2022-07-28T07:22:10.112Z,1.00
2022-07-28T07:25:15.333Z,0.80
2022-07-28T07:28:18.415Z,0.70
2022-07-28T07:31:21.525Z,0.70
2022-07-28T07:34:24.663Z,0.60
2022-07-28T07:37:27.938Z,0.70
2022-07-28T07:40:31.379Z,0.70
2022-07-28T07:43:34.399Z,0.80
2022-07-28T07:46:38.844Z,0.90
2022-07-28T07:49:45.242Z,0.50
2022-07-28T07:52:52.123Z,0.60
2022-07-28T07:55:55.086Z,0.80
2022-07-28T07:58:59.079Z,1.30
2022-07-28T08:02:02.450Z,1.60
2022-07-28T08:05:06.549Z,0.80
2022-07-28T08:08:11.884Z,0.90
2022-07-28T08:11:15.162Z,0.80
2022-07-28T08:14:18.496Z,0.90
2022-07-28T08:17:25.863Z,0.70
2022-07-28T08:20:31.763Z,0.80
2022-07-28T08:23:34.668Z,0.80
2022-07-28T08:26:37.500Z,0.90
2022-07-28T08:29:40.473Z,0.90
2022-07-28T08:32:43.446Z,0.80
2022-07-28T08:35:47.644Z,0.70
2022-07-28T08:38:50.612Z,0.70
2022-07-28T08:42:25.718Z,0.80
2022-07-28T08:45:30.758Z,0.60
2022-07-28T08:48:40.132Z,0.80
2022-07-28T08:51:44.461Z,0.90
2022-07-28T08:54:49.679Z,0.80
2022-07-28T08:57:56.393Z,0.70
2022-07-28T09:01:02.071Z,0.70
2022-07-28T09:04:07.018Z,0.90
2022-07-28T09:07:11.560Z,0.90
2022-07-28T09:10:14.469Z,0.70
2022-07-28T09:13:18.467Z,0.60
2022-07-28T09:16:21.508Z,0.60
2022-07-28T09:19:24.515Z,0.60
2022-07-28T09:22:33.368Z,0.70
2022-07-28T09:25:36.396Z,0.70
2022-07-28T09:28:57.688Z,0.70
2022-07-28T09:32:00.836Z,0.90
2022-07-28T09:35:04.137Z,0.60
2022-07-28T09:38:07.317Z,0.80
2022-07-28T09:41:11.108Z,0.90
2022-07-28T09:44:21.828Z,0.90
2022-07-28T09:47:33.275Z,0.50
2022-07-28T09:50:36.805Z,0.90
2022-07-28T09:53:41.009Z,0.80
2022-07-28T09:56:46.042Z,0.70
2022-07-28T09:59:52.114Z,0.70
2022-07-28T10:02:58.387Z,0.50
2022-07-28T10:06:05.338Z,0.70
2022-07-28T10:09:12.737Z,0.80
2022-07-28T10:12:22.962Z,0.60
2022-07-28T10:15:46.768Z,0.50
2022-07-28T10:18:55.293Z,0.80
2022-07-28T10:22:01.097Z,0.70
2022-07-28T10:25:15.413Z,0.60
2022-07-28T10:28:23.151Z,1.00
2022-07-28T10:31:43.326Z,0.70
2022-07-28T10:35:15.490Z,0.60
2022-07-28T10:38:21.591Z,0.70
2022-07-28T10:41:30.082Z,0.90
2022-07-28T10:44:33.826Z,0.60
2022-07-28T10:47:36.793Z,0.70
2022-07-28T10:50:40.214Z,0.60
2022-07-28T10:53:54.582Z,0.90
2022-07-28T10:57:00.542Z,0.70
2022-07-28T11:00:24.725Z,0.70
2022-07-28T11:03:40.947Z,0.80
2022-07-28T11:06:46.212Z,0.80
2022-07-28T11:09:49.587Z,0.80
2022-07-28T11:12:58.729Z,0.60
2022-07-28T11:16:13.788Z,0.40
2022-07-28T11:19:36.578Z,0.50
2022-07-28T11:22:42.011Z,0.80
2022-07-28T11:26:22.551Z,0.60
2022-07-28T11:29:25.582Z,0.60
2022-07-28T11:32:51.212Z,0.80
2022-07-28T11:35:56.244Z,0.70
2022-07-28T11:39:25.379Z,0.50
2022-07-28T11:45:38.830Z,0.50
2022-07-28T11:48:46.924Z,0.60
2022-07-28T11:52:16.875Z,0.60
2022-07-28T11:55:21.375Z,0.40
2022-07-28T11:58:44.407Z,0.50
2022-07-28T12:01:54.634Z,1.00
2022-07-28T12:05:00.828Z,1.00
2022-07-28T12:08:05.422Z,0.90
2022-07-28T12:11:08.277Z,0.70
2022-07-28T12:14:16.459Z,0.50
2022-07-28T12:17:20.049Z,0.90
2022-07-28T12:20:23.735Z,0.60
2022-07-28T12:23:39.297Z,0.70
2022-07-28T12:26:50.282Z,0.90
2022-07-28T12:30:02.261Z,1.00
2022-07-28T12:33:17.316Z,0.90
2022-07-28T12:36:21.882Z,0.60
2022-07-28T12:39:26.251Z,0.60
2022-07-28T12:42:32.456Z,0.80
2022-07-28T12:45:45.851Z,0.80
2022-07-28T12:48:49.107Z,1.10
2022-07-28T12:51:52.094Z,1.00
2022-07-28T12:54:58.242Z,0.80
2022-07-28T12:58:01.318Z,0.50
2022-07-28T13:01:09.322Z,0.80
2022-07-28T13:04:13.612Z,0.60
2022-07-28T13:07:22.717Z,0.70
2022-07-28T13:10:27.906Z,0.70
2022-07-28T13:13:30.812Z,0.50
2022-07-28T13:16:34.660Z,0.60
2022-07-28T13:19:37.912Z,0.80
2022-07-28T13:22:41.643Z,0.80
2022-07-28T13:25:44.543Z,0.60
2022-07-28T13:28:47.268Z,0.70
2022-07-28T13:31:50.551Z,0.50
2022-07-28T13:34:53.560Z,0.50
2022-07-28T13:37:57.100Z,0.30
2022-07-28T13:40:59.848Z,0.70
2022-07-28T13:44:02.692Z,0.60
2022-07-28T13:47:08.215Z,0.60
2022-07-28T13:50:11.222Z,0.40
2022-07-28T13:53:14.928Z,0.50
2022-07-28T13:56:36.619Z,0.60
2022-07-28T13:59:41.011Z,0.60
2022-07-28T14:02:44.995Z,0.40
2022-07-28T14:05:48.164Z,0.60
2022-07-28T14:08:52.845Z,0.70
2022-07-28T14:11:56.040Z,0.70
2022-07-28T14:14:58.807Z,0.70
2022-07-28T14:18:01.637Z,0.70
2022-07-28T14:21:05.714Z,0.50
2022-07-28T14:24:08.847Z,0.50
2022-07-28T14:27:11.964Z,0.60
2022-07-28T14:30:15.099Z,0.50
2022-07-28T14:33:18.072Z,0.50
2022-07-28T14:36:20.852Z,0.40
2022-07-28T14:39:23.865Z,0.30
2022-07-28T14:42:26.888Z,0.30
2022-07-28T14:45:30.174Z,0.50
2022-07-28T14:48:33.828Z,0.50
2022-07-28T14:51:39.365Z,0.70
2022-07-28T14:54:47.694Z,0.70
2022-07-28T14:57:54.848Z,0.40
2022-07-28T15:00:57.945Z,0.60
2022-07-28T15:04:00.793Z,0.60
2022-07-28T15:07:04.032Z,0.40
2022-07-28T15:10:21.127Z,0.50
2022-07-28T15:13:27.516Z,0.70
2022-07-28T15:16:35.162Z,0.50
2022-07-28T15:19:39.194Z,0.40
2022-07-28T15:22:42.271Z,0.50
2022-07-28T15:25:48.411Z,0.50
2022-07-28T15:28:57.500Z,0.50
2022-07-28T15:32:13.149Z,0.30
2022-07-28T15:35:19.852Z,0.30
2022-07-28T15:38:23.224Z,0.30
2022-07-28T15:41:26.196Z,0.40
2022-07-28T15:44:30.603Z,0.60
2022-07-28T15:47:34.290Z,0.60
2022-07-28T15:50:38.527Z,0.40
2022-07-28T15:53:42.177Z,0.40
2022-07-28T15:56:45.169Z,0.40
2022-07-28T15:59:50.921Z,0.40
2022-07-28T16:02:54.257Z,0.60
2022-07-28T16:05:58.902Z,0.50
2022-07-28T16:09:03.291Z,0.40
2022-07-28T16:12:06.592Z,0.50
2022-07-28T16:15:16.212Z,0.60
2022-07-28T16:18:19.090Z,0.50
2022-07-28T16:21:22.028Z,0.50
2022-07-28T16:24:26.783Z,0.50
2022-07-28T16:27:29.623Z,0.50
2022-07-28T16:30:35.265Z,0.60
2022-07-28T16:33:38.097Z,0.40
2022-07-28T16:36:41.135Z,0.60
2022-07-28T16:39:45.344Z,0.50
2022-07-28T16:42:51.260Z,0.40
2022-07-28T16:45:54.213Z,0.40
2022-07-28T16:48:57.419Z,0.50
2022-07-28T16:52:00.461Z,0.40
2022-07-28T16:55:04.374Z,0.40
2022-07-28T16:58:07.287Z,0.40
2022-07-28T17:01:12.065Z,0.40
2022-07-28T17:04:16.174Z,0.50
2022-07-28T17:07:19.915Z,0.60
2022-07-28T17:10:27.477Z,0.40
2022-07-28T17:13:30.773Z,0.50
2022-07-28T17:16:33.923Z,0.40
2022-07-28T17:19:37.568Z,0.40
2022-07-28T17:22:43.440Z,0.40
2022-07-28T17:26:12.570Z,0.40
2022-07-28T17:29:10.624Z,0.30
2022-07-28T17:32:13.641Z,0.60
2022-07-28T17:35:31.303Z,0.40
2022-07-28T17:38:37.531Z,0.40
2022-07-28T17:41:40.450Z,0.30
2022-07-28T17:44:43.475Z,0.60
2022-07-28T17:47:46.453Z,0.60
2022-07-28T17:50:51.591Z,0.50
2022-07-28T17:53:55.541Z,0.30
2022-07-28T17:57:00.075Z,0.50
2022-07-28T18:00:05.157Z,0.60
2022-07-28T18:03:11.176Z,0.40
2022-07-28T18:06:17.609Z,0.80
2022-07-28T18:09:20.458Z,0.60
2022-07-28T18:12:23.431Z,0.60
2022-07-28T18:15:31.345Z,0.50
2022-07-28T18:18:34.596Z,0.70
2022-07-28T18:21:37.773Z,0.70
2022-07-28T18:24:46.164Z,0.90
2022-07-28T18:27:49.240Z,0.60
2022-07-28T18:30:52.257Z,0.60
2022-07-28T18:33:55.707Z,0.80
2022-07-28T18:36:59.695Z,0.50
2022-07-28T18:40:02.871Z,0.50
2022-07-28T18:43:11.197Z,0.50
2022-07-28T18:46:15.924Z,0.70
2022-07-28T18:49:20.330Z,0.70
2022-07-28T18:52:24.096Z,0.70
2022-07-28T18:55:26.941Z,0.90
2022-07-28T18:58:30.017Z,0.70
2022-07-28T19:01:33.131Z,0.60
2022-07-28T19:04:41.905Z,0.90
2022-07-28T19:07:44.878Z,0.70
2022-07-28T19:10:47.942Z,0.70
2022-07-28T19:13:51.533Z,0.80
2022-07-28T19:16:54.916Z,0.80
2022-07-28T19:19:59.629Z,1.20
2022-07-28T19:23:05.481Z,0.70
2022-07-28T19:26:09.354Z,0.70
2022-07-28T19:29:13.047Z,0.80
2022-07-28T19:32:16.016Z,0.70
2022-07-28T19:35:18.828Z,0.70
2022-07-28T19:38:21.653Z,0.70
2022-07-28T19:41:24.728Z,0.70
2022-07-28T19:44:30.307Z,0.80
2022-07-28T19:47:36.885Z,0.70
2022-07-28T19:50:46.004Z,0.60
2022-07-28T19:53:54.603Z,1.00
2022-07-28T19:57:01.080Z,1.20
2022-07-28T20:00:19.716Z,1.00
2022-07-28T20:04:03.790Z,1.30
2022-07-28T20:06:45.917Z,0.90
2022-07-28T20:09:49.198Z,1.20
2022-07-28T20:12:53.499Z,1.20
2022-07-28T20:15:56.474Z,1.30
2022-07-28T20:18:59.693Z,1.50
2022-07-28T20:22:02.927Z,1.20
2022-07-28T20:25:09.377Z,0.80
2022-07-28T20:28:12.763Z,1.30
2022-07-28T20:31:17.202Z,1.10
2022-07-28T20:34:21.277Z,0.90
2022-07-28T20:37:36.818Z,0.90
2022-07-28T20:40:41.127Z,0.90
2022-07-28T20:43:44.017Z,0.50
2022-07-28T20:46:47.481Z,0.80
2022-07-28T20:49:52.092Z,0.90
2022-07-28T20:52:55.273Z,0.80
2022-07-28T20:55:58.143Z,0.90
2022-07-28T20:59:06.772Z,0.80
2022-07-28T21:02:11.284Z,0.90
2022-07-28T21:05:20.168Z,0.90
2022-07-28T21:08:37.313Z,0.80
2022-07-28T21:11:40.855Z,0.70
2022-07-28T21:14:45.694Z,1.00
2022-07-28T21:17:49.261Z,1.00
2022-07-28T21:20:52.483Z,0.80
2022-07-28T21:23:55.513Z,0.80
2022-07-28T21:26:58.583Z,0.60
2022-07-28T21:30:01.561Z,0.70
2022-07-28T21:33:04.591Z,0.80
2022-07-28T21:36:09.601Z,1.00
2022-07-28T21:39:13.079Z,0.90
2022-07-28T21:42:16.010Z,0.80
2022-07-28T21:45:19.292Z,0.60
2022-07-28T21:48:25.244Z,0.60
2022-07-28T21:54:37.823Z,0.80
2022-07-28T21:57:40.695Z,0.80
2022-07-28T22:00:43.933Z,0.90
2022-07-28T22:03:47.052Z,1.00
2022-07-28T22:06:50.226Z,1.00
2022-07-28T22:09:53.406Z,0.80
2022-07-28T22:12:59.867Z,0.60
2022-07-28T22:16:02.912Z,0.90
2022-07-28T22:19:06.111Z,0.80
2022-07-28T22:22:09.093Z,1.00
2022-07-28T22:25:13.177Z,0.80
2022-07-28T22:28:16.147Z,1.20
2022-07-28T22:31:21.609Z,0.70
2022-07-28T22:34:25.060Z,1.10
2022-07-28T22:37:28.240Z,1.10
2022-07-28T22:40:31.211Z,1.00
2022-07-28T22:43:34.802Z,1.00
2022-07-28T22:46:38.070Z,1.20
2022-07-28T22:49:42.300Z,1.10
2022-07-28T22:52:48.528Z,0.90
2022-07-28T22:55:51.402Z,1.00
2022-07-28T22:58:54.140Z,1.00
2022-07-28T23:01:58.456Z,0.70
2022-07-28T23:05:01.968Z,0.70
2022-07-28T23:08:05.430Z,1.10
2022-07-28T23:11:08.400Z,1.00
2022-07-28T23:14:11.170Z,1.00
2022-07-28T23:17:14.990Z,1.10
2022-07-28T23:20:18.548Z,1.00
2022-07-28T23:23:21.478Z,0.80
2022-07-28T23:26:24.281Z,0.70
2022-07-28T23:29:27.464Z,0.90
2022-07-28T23:32:30.435Z,0.90
2022-07-28T23:35:35.623Z,0.90
2022-07-28T23:38:40.292Z,1.00
2022-07-28T23:41:43.249Z,1.00
2022-07-28T23:44:46.007Z,1.10
2022-07-28T23:47:48.904Z,0.90
2022-07-28T23:50:51.811Z,1.00
2022-07-28T23:53:56.540Z,1.40
2022-07-28T23:56:59.614Z,0.90
